createdAt,value
2022-12-09T00:00:49.338Z,0.27
2022-12-09T00:01:48.812Z,0.33
2022-12-09T00:02:49.784Z,0.3
2022-12-09T00:03:50.406Z,0.3
2022-12-09T00:04:50.485Z,0.31
2022-12-09T00:05:49.760Z,0.31
2022-12-09T00:06:50.681Z,0.44
2022-12-09T00:07:51.185Z,0.42
2022-12-09T00:08:51.845Z,0.52
2022-12-09T00:09:53.048Z,0.52
2022-12-09T00:10:54.131Z,0.52
2022-12-09T00:11:54.768Z,0.52
2022-12-09T00:12:55.615Z,0.64
2022-12-09T00:13:56.829Z,0.58
2022-12-09T00:14:57.227Z,0.56
2022-12-09T00:15:58.307Z,0.56
2022-12-09T00:16:58.183Z,0.66
2022-12-09T00:17:58.286Z,0.48
2022-12-09T00:18:59.112Z,0.44
2022-12-09T00:19:58.645Z,0.39
2022-12-09T00:20:59.736Z,0.44
2022-12-09T00:21:59.611Z,0.37
2022-12-09T00:23:00.113Z,0.37
2022-12-09T00:24:01.188Z,0.29
2022-12-09T00:25:02.432Z,0.27
2022-12-09T00:26:03.435Z,0.26
2022-12-09T00:27:03.796Z,0.26
2022-12-09T00:28:04.575Z,0.37
2022-12-09T00:29:04.970Z,0.34
2022-12-09T00:30:06.957Z,0.4
2022-12-09T00:31:06.807Z,0.44
2022-12-09T00:32:07.032Z,0.56
2022-12-09T00:33:08.079Z,0.51
2022-12-09T00:34:07.809Z,0.56
2022-12-09T00:35:09.189Z,0.58
2022-12-09T00:36:10.294Z,0.48
2022-12-09T00:37:11.096Z,0.45
2022-12-09T00:38:11.029Z,0.45
2022-12-09T00:39:12.074Z,0.49
2022-12-09T00:40:13.487Z,0.52
2022-12-09T00:41:13.128Z,0.63
2022-12-09T00:42:14.023Z,0.61
2022-12-09T00:43:13.560Z,0.45
2022-12-09T00:44:14.316Z,0.56
2022-12-09T00:45:14.258Z,0.45
2022-12-09T00:46:15.166Z,0.44
2022-12-09T00:47:16.255Z,0.39
2022-12-09T00:48:16.161Z,0.3
2022-12-09T00:49:16.317Z,0.4
2022-12-09T00:50:16.997Z,0.4
2022-12-09T00:51:16.848Z,0.37
2022-12-09T00:52:17.243Z,0.47
2022-12-09T00:53:17.921Z,0.36
2022-12-09T00:54:19.295Z,0.51
2022-12-09T00:55:19.471Z,0.56
2022-12-09T00:56:19.846Z,0.48
2022-12-09T00:57:20.811Z,0.49
2022-12-09T00:58:20.901Z,0.44
2022-12-09T00:59:21.475Z,0.47
2022-12-09T01:00:22.100Z,0.42
2022-12-09T01:01:23.316Z,0.34
2022-12-09T01:02:24.150Z,0.34
2022-12-09T01:03:25.070Z,0.3
2022-12-09T01:04:25.539Z,0.33
2022-12-09T01:05:25.294Z,0.29
2022-12-09T01:06:25.542Z,0.29
2022-12-09T01:07:26.279Z,0.31
2022-12-09T01:08:27.275Z,0.33
2022-12-09T01:09:28.059Z,0.26
2022-12-09T01:10:28.040Z,0.26
2022-12-09T01:11:28.896Z,0.34
2022-12-09T01:12:28.609Z,0.26
2022-12-09T01:13:29.574Z,0.3
2022-12-09T01:14:29.805Z,0.31
2022-12-09T01:15:31.286Z,0.36
2022-12-09T01:16:31.193Z,0.26
2022-12-09T01:17:31.671Z,0.29
2022-12-09T01:18:31.713Z,0.26
2022-12-09T01:19:32.293Z,0.26
2022-12-09T01:20:32.519Z,0.26
2022-12-09T01:21:33.186Z,0.29
2022-12-09T01:22:34.200Z,0.3
2022-12-09T01:23:34.640Z,0.24
2022-12-09T01:24:35.628Z,0.33
2022-12-09T01:25:36.505Z,0.3
2022-12-09T01:26:37.205Z,0.23
2022-12-09T01:27:38.093Z,0.23
2022-12-09T01:28:38.289Z,0.27
2022-12-09T01:29:39.502Z,0.27
2022-12-09T01:30:39.597Z,0.19
2022-12-09T01:31:39.392Z,0.2
2022-12-09T01:32:40.150Z,0.24
2022-12-09T01:33:40.477Z,0.26
2022-12-09T01:34:40.950Z,0.23
2022-12-09T01:35:41.152Z,0.2
2022-12-09T01:36:42.302Z,0.26
2022-12-09T01:37:43.196Z,0.3
2022-12-09T01:38:43.776Z,0.34
2022-12-09T01:39:44.508Z,0.27
2022-12-09T01:40:45.937Z,0.26
2022-12-09T01:41:46.424Z,0.3
2022-12-09T01:42:47.442Z,0.29
2022-12-09T01:43:48.116Z,0.31
2022-12-09T01:44:49.051Z,0.29
2022-12-09T01:45:49.760Z,0.24
2022-12-09T01:46:50.362Z,0.3
2022-12-09T01:47:50.298Z,0.26
2022-12-09T01:48:51.662Z,0.29
2022-12-09T01:49:51.407Z,0.31
2022-12-09T01:50:52.226Z,0.31
2022-12-09T01:51:53.336Z,0.29
2022-12-09T01:52:53.557Z,0.31
2022-12-09T01:53:53.653Z,0.18
2022-12-09T01:54:54.750Z,0.16
2022-12-09T01:55:55.504Z,0.15
2022-12-09T01:56:55.498Z,0.11
2022-12-09T01:57:56.754Z,0.02
2022-12-09T01:58:57.086Z,-0.02
2022-12-09T01:59:57.614Z,0
2022-12-09T02:00:58.509Z,-0.12
2022-12-09T02:01:58.574Z,-0.13
2022-12-09T02:02:59.723Z,-0.12
2022-12-09T02:04:01.080Z,-0.09
2022-12-09T02:05:01.689Z,-0.13
2022-12-09T02:06:01.935Z,-0.12
2022-12-09T02:07:02.088Z,-0.15
2022-12-09T02:08:02.774Z,-0.1
2022-12-09T02:09:03.475Z,-0.03
2022-12-09T02:10:04.110Z,-0.02
2022-12-09T02:11:04.512Z,-0.06
2022-12-09T02:12:06.156Z,0.01
2022-12-09T02:13:06.429Z,0.05
2022-12-09T02:14:07.055Z,0.02
2022-12-09T02:15:08.605Z,0.01
2022-12-09T02:16:09.526Z,0.09
2022-12-09T02:17:10.230Z,0.09
2022-12-09T02:18:09.925Z,0.18
2022-12-09T02:19:10.302Z,0.23
2022-12-09T02:20:13.112Z,0.18
2022-12-09T02:21:11.871Z,0.26
2022-12-09T02:22:12.094Z,0.27
2022-12-09T02:23:12.809Z,0.29
2022-12-09T02:24:13.578Z,0.29
2022-12-09T02:25:13.925Z,0.3
2022-12-09T02:26:14.449Z,0.29
2022-12-09T02:27:15.246Z,0.44
2022-12-09T02:28:15.613Z,0.42
2022-12-09T02:29:16.100Z,0.39
2022-12-09T02:30:17.127Z,0.51
2022-12-09T02:31:18.367Z,0.52
2022-12-09T02:32:18.561Z,0.51
2022-12-09T02:33:19.998Z,0.49
2022-12-09T02:34:19.311Z,0.51
2022-12-09T02:35:20.119Z,0.56
2022-12-09T02:36:21.545Z,0.56
2022-12-09T02:37:21.972Z,0.58
2022-12-09T02:38:22.113Z,0.44
2022-12-09T02:39:21.924Z,0.47
2022-12-09T02:40:23.091Z,0.47
2022-12-09T02:41:22.515Z,0.42
2022-12-09T02:42:23.448Z,0.4
2022-12-09T02:43:23.735Z,0.49
2022-12-09T02:44:24.915Z,0.47
2022-12-09T02:45:25.557Z,0.51
2022-12-09T02:46:26.700Z,0.48
2022-12-09T02:47:26.656Z,0.64
2022-12-09T02:48:27.027Z,0.56
2022-12-09T02:49:26.825Z,0.61
2022-12-09T02:50:27.248Z,0.61
2022-12-09T02:51:28.000Z,0.63
2022-12-09T02:52:28.258Z,0.66
2022-12-09T02:53:29.609Z,0.61
2022-12-09T02:54:29.628Z,0.58
2022-12-09T02:55:30.401Z,0.63
2022-12-09T02:56:30.171Z,0.58
2022-12-09T02:57:31.540Z,0.63
2022-12-09T02:58:32.497Z,0.58
2022-12-09T02:59:32.900Z,0.56
2022-12-09T03:00:34.141Z,0.59
2022-12-09T03:01:35.031Z,0.63
2022-12-09T03:02:36.045Z,0.64
2022-12-09T03:03:37.082Z,0.59
2022-12-09T03:04:35.745Z,0.48
2022-12-09T03:05:36.088Z,0.47
2022-12-09T03:06:36.689Z,0.4
2022-12-09T03:07:37.602Z,0.4
2022-12-09T03:08:38.463Z,0.45
2022-12-09T03:09:39.283Z,0.44
2022-12-09T03:10:39.308Z,0.39
2022-12-09T03:11:39.744Z,0.3
2022-12-09T03:12:40.468Z,0.26
2022-12-09T03:13:41.118Z,0.3
2022-12-09T03:14:42.378Z,0.27
2022-12-09T03:15:42.888Z,0.3
2022-12-09T03:16:44.086Z,0.23
2022-12-09T03:17:43.964Z,0.27
2022-12-09T03:18:44.603Z,0.2
2022-12-09T03:19:45.358Z,0.24
2022-12-09T03:20:45.225Z,0.24
2022-12-09T03:21:45.942Z,0.19
2022-12-09T03:22:47.582Z,0.15
2022-12-09T03:23:48.074Z,0.2
2022-12-09T03:24:48.088Z,0.12
2022-12-09T03:25:48.242Z,0.15
2022-12-09T03:26:48.744Z,0.05
2022-12-09T03:27:49.281Z,0.06
2022-12-09T03:28:50.077Z,0.05
2022-12-09T03:29:51.062Z,0.06
2022-12-09T03:30:52.004Z,0.06
2022-12-09T03:31:53.207Z,0
2022-12-09T03:32:54.087Z,0.09
2022-12-09T03:33:54.277Z,0.01
2022-12-09T03:34:54.557Z,0.01
2022-12-09T03:35:55.381Z,0
2022-12-09T03:36:55.861Z,0.05
2022-12-09T03:37:57.046Z,0.05
2022-12-09T03:38:57.466Z,0.05
2022-12-09T03:39:57.963Z,0.08
2022-12-09T03:40:59.372Z,0.09
2022-12-09T03:41:59.596Z,0.11
2022-12-09T03:42:59.646Z,0.2
2022-12-09T03:44:00.525Z,0.18
2022-12-09T03:45:01.246Z,0.26
2022-12-09T03:46:02.460Z,0.23
2022-12-09T03:47:01.897Z,0.15
2022-12-09T03:48:02.880Z,0.15
2022-12-09T03:49:02.317Z,0.16
2022-12-09T03:50:03.514Z,0.16
2022-12-09T03:51:03.533Z,0.13
2022-12-09T03:52:04.090Z,0.18
2022-12-09T03:53:04.549Z,0.19
2022-12-09T03:54:04.850Z,0.2
2022-12-09T03:55:06.395Z,0.23
2022-12-09T03:56:07.267Z,0.16
2022-12-09T03:57:08.153Z,0.15
2022-12-09T03:58:08.936Z,0.26
2022-12-09T03:59:09.360Z,0.18
2022-12-09T04:00:11.870Z,0.23
2022-12-09T04:01:11.391Z,0.15
2022-12-09T04:02:11.069Z,0.13
2022-12-09T04:03:12.726Z,0.18
2022-12-09T04:04:12.967Z,0.16
2022-12-09T04:05:13.414Z,0.2
2022-12-09T04:06:13.178Z,0.13
2022-12-09T04:07:13.622Z,0.2
2022-12-09T04:08:14.596Z,0.24
2022-12-09T04:09:14.843Z,0.23
2022-12-09T04:10:15.609Z,0.27
2022-12-09T04:11:15.458Z,0.29
2022-12-09T04:12:17.112Z,0.44
2022-12-09T04:13:17.347Z,0.34
2022-12-09T04:14:21.798Z,0.3
2022-12-09T04:15:18.791Z,0.42
2022-12-09T04:16:18.653Z,0.26
2022-12-09T04:17:18.895Z,0.27
2022-12-09T04:18:19.930Z,0.3
2022-12-09T04:19:19.998Z,0.29
2022-12-09T04:20:20.499Z,0.29
2022-12-09T04:21:20.800Z,0.26
2022-12-09T04:22:21.559Z,0.29
2022-12-09T04:23:22.254Z,0.36
2022-12-09T04:24:23.594Z,0.27
2022-12-09T04:25:24.137Z,0.27
2022-12-09T04:26:24.191Z,0.3
2022-12-09T04:27:25.250Z,0.26
2022-12-09T04:28:25.965Z,0.26
2022-12-09T04:29:27.487Z,0.39
2022-12-09T04:30:28.068Z,0.33
2022-12-09T04:31:29.114Z,0.3
2022-12-09T04:32:29.620Z,0.3
2022-12-09T04:33:30.555Z,0.3
2022-12-09T04:34:30.907Z,0.29
2022-12-09T04:35:30.980Z,0.33
2022-12-09T04:36:30.844Z,0.26
2022-12-09T04:37:31.533Z,0.26
2022-12-09T04:38:32.194Z,0.39
2022-12-09T04:39:32.982Z,0.39
2022-12-09T04:40:33.261Z,0.24
2022-12-09T04:41:33.001Z,0.39
2022-12-09T04:42:34.259Z,0.45
2022-12-09T04:43:35.090Z,0.44
2022-12-09T04:44:36.452Z,0.4
2022-12-09T04:45:36.795Z,0.3
2022-12-09T04:46:38.101Z,0.39
2022-12-09T04:47:39.098Z,0.4
2022-12-09T04:48:38.679Z,0.29
2022-12-09T04:49:39.614Z,0.3
2022-12-09T04:50:39.571Z,0.3
2022-12-09T04:51:45.781Z,0.3
2022-12-09T04:52:40.269Z,0.24
2022-12-09T04:53:41.982Z,0.26
2022-12-09T04:54:42.992Z,0.26
2022-12-09T04:55:42.851Z,0.27
2022-12-09T04:56:43.764Z,0.26
2022-12-09T04:57:44.322Z,0.26
2022-12-09T04:58:45.593Z,0.23
2022-12-09T04:59:46.460Z,0.23
2022-12-09T05:00:46.542Z,0.23
2022-12-09T05:01:47.970Z,0.26
2022-12-09T05:02:48.956Z,0.23
2022-12-09T05:03:48.480Z,0.29
2022-12-09T05:04:49.967Z,0.33
2022-12-09T05:05:49.467Z,0.3
2022-12-09T05:06:50.140Z,0.26
2022-12-09T05:07:50.853Z,0.33
2022-12-09T05:08:51.457Z,0.39
2022-12-09T05:09:52.256Z,0.39
2022-12-09T05:10:53.236Z,0.3
2022-12-09T05:11:53.132Z,0.4
2022-12-09T05:12:53.915Z,0.31
2022-12-09T05:13:55.455Z,0.34
2022-12-09T05:14:55.219Z,0.3
2022-12-09T05:15:55.884Z,0.26
2022-12-09T05:16:56.879Z,0.3
2022-12-09T05:17:56.899Z,0.26
2022-12-09T05:18:57.770Z,0.31
2022-12-09T05:19:56.986Z,0.39
2022-12-09T05:20:57.853Z,0.39
2022-12-09T05:21:59.361Z,0.4
2022-12-09T05:23:04.395Z,0.29
2022-12-09T05:24:00.349Z,0.29
2022-12-09T05:25:01.157Z,0.39
2022-12-09T05:26:00.998Z,0.29
2022-12-09T05:27:02.146Z,0.27
2022-12-09T05:28:02.232Z,0.31
2022-12-09T05:29:03.056Z,0.42
2022-12-09T05:30:04.268Z,0.3
2022-12-09T05:31:04.828Z,0.29
2022-12-09T05:32:05.789Z,0.33
2022-12-09T05:33:06.013Z,0.24
2022-12-09T05:34:06.195Z,0.2
2022-12-09T05:35:05.782Z,0.31
2022-12-09T05:36:06.154Z,0.29
2022-12-09T05:37:07.121Z,0.31
2022-12-09T05:38:06.760Z,0.26
2022-12-09T05:39:07.449Z,0.29
2022-12-09T05:40:09.028Z,0.24
2022-12-09T05:41:09.163Z,0.3
2022-12-09T05:42:09.334Z,0.42
2022-12-09T05:43:09.916Z,0.42
2022-12-09T05:44:10.041Z,0.44
2022-12-09T05:45:11.766Z,0.48
2022-12-09T05:46:12.335Z,0.44
2022-12-09T05:47:12.848Z,0.52
2022-12-09T05:48:13.527Z,0.56
2022-12-09T05:49:13.567Z,0.48
2022-12-09T05:50:15.929Z,0.58
2022-12-09T05:51:14.205Z,0.52
2022-12-09T05:52:13.912Z,0.58
2022-12-09T05:53:15.138Z,0.61
2022-12-09T05:54:15.713Z,0.56
2022-12-09T05:55:16.880Z,0.48
2022-12-09T05:56:17.353Z,0.56
2022-12-09T05:57:17.041Z,0.58
2022-12-09T05:58:17.260Z,0.49
2022-12-09T05:59:18.414Z,0.51
2022-12-09T06:00:19.884Z,0.58
2022-12-09T06:01:20.048Z,0.61
2022-12-09T06:02:21.855Z,0.66
2022-12-09T06:03:23.202Z,0.61
2022-12-09T06:04:22.893Z,0.61
2022-12-09T06:05:23.105Z,0.61
2022-12-09T06:06:23.929Z,0.61
2022-12-09T06:07:23.557Z,0.55
2022-12-09T06:08:24.060Z,0.55
2022-12-09T06:09:24.925Z,0.55
2022-12-09T06:10:25.651Z,0.55
2022-12-09T06:11:26.760Z,0.51
2022-12-09T06:12:27.403Z,0.51
2022-12-09T06:13:28.058Z,0.49
2022-12-09T06:14:28.611Z,0.47
2022-12-09T06:15:35.124Z,0.44
2022-12-09T06:16:30.625Z,0.44
2022-12-09T06:17:30.829Z,0.48
2022-12-09T06:18:32.150Z,0.37
2022-12-09T06:19:32.702Z,0.48
2022-12-09T06:20:33.700Z,0.48
2022-12-09T06:21:33.638Z,0.51
2022-12-09T06:22:34.543Z,0.49
2022-12-09T06:23:34.963Z,0.52
2022-12-09T06:24:35.231Z,0.58
2022-12-09T06:25:35.751Z,0.48
2022-12-09T06:26:36.258Z,0.51
2022-12-09T06:27:36.212Z,0.51
2022-12-09T06:28:36.708Z,0.49
2022-12-09T06:29:38.480Z,0.67
2022-12-09T06:30:38.296Z,0.63
2022-12-09T06:31:40.138Z,0.59
2022-12-09T06:32:40.825Z,0.58
2022-12-09T06:34:02.020Z,0.61
2022-12-09T06:34:42.298Z,0.61
2022-12-09T06:35:43.373Z,0.63
2022-12-09T06:36:43.553Z,0.59
2022-12-09T06:37:44.829Z,0.55
2022-12-09T06:38:45.668Z,0.52
2022-12-09T06:39:46.576Z,0.49
2022-12-09T06:40:47.924Z,0.51
2022-12-09T06:41:48.523Z,0.48
2022-12-09T06:42:48.777Z,0.51
2022-12-09T06:43:49.570Z,0.48
2022-12-09T06:44:50.610Z,0.63
2022-12-09T06:45:51.306Z,0.58
2022-12-09T06:46:52.095Z,0.56
2022-12-09T06:47:52.920Z,0.63
2022-12-09T06:48:53.850Z,0.51
2022-12-09T06:49:53.389Z,0.68
2022-12-09T06:50:53.884Z,0.7
2022-12-09T06:51:54.688Z,0.63
2022-12-09T06:52:55.103Z,0.67
2022-12-09T06:53:56.014Z,0.61
2022-12-09T06:54:55.621Z,0.64
2022-12-09T06:55:56.612Z,0.68
2022-12-09T06:56:56.332Z,0.67
2022-12-09T06:57:56.905Z,0.7
2022-12-09T06:58:58.167Z,0.67
2022-12-09T06:59:58.273Z,0.59
2022-12-09T07:00:58.712Z,0.66
2022-12-09T07:01:59.776Z,0.71
2022-12-09T07:03:00.384Z,0.63
2022-12-09T07:04:01.234Z,0.64
2022-12-09T07:05:00.921Z,0.63
2022-12-09T07:06:01.719Z,0.59
2022-12-09T07:07:01.503Z,0.64
2022-12-09T07:08:01.890Z,0.61
2022-12-09T07:09:02.591Z,0.49
2022-12-09T07:10:03.089Z,0.55
2022-12-09T07:11:04.555Z,0.63
2022-12-09T07:12:04.190Z,0.64
2022-12-09T07:13:04.371Z,0.56
2022-12-09T07:14:05.467Z,0.59
2022-12-09T07:15:06.609Z,0.66
2022-12-09T07:16:06.157Z,0.59
2022-12-09T07:17:07.703Z,0.58
2022-12-09T07:18:07.732Z,0.64
2022-12-09T07:19:07.873Z,0.7
2022-12-09T07:20:13.361Z,0.63
2022-12-09T07:21:08.687Z,0.61
2022-12-09T07:22:08.682Z,0.68
2022-12-09T07:23:09.476Z,0.71
2022-12-09T07:24:10.673Z,0.71
2022-12-09T07:25:11.131Z,0.74
2022-12-09T07:26:10.779Z,0.7
2022-12-09T07:27:20.129Z,0.61
2022-12-09T07:28:12.043Z,0.63
2022-12-09T07:29:12.841Z,0.68
2022-12-09T07:30:12.995Z,0.71
2022-12-09T07:31:14.429Z,0.68
2022-12-09T07:32:13.835Z,0.68
2022-12-09T07:33:16.028Z,0.78
2022-12-09T07:34:16.348Z,0.7
2022-12-09T07:35:18.023Z,0.74
2022-12-09T07:36:22.359Z,0.71
2022-12-09T07:37:17.613Z,0.77
2022-12-09T07:38:18.265Z,0.7
2022-12-09T07:39:19.250Z,0.68
2022-12-09T07:40:19.778Z,0.66
2022-12-09T07:41:20.291Z,0.68
2022-12-09T07:42:21.042Z,0.66
2022-12-09T07:43:21.067Z,0.71
2022-12-09T07:44:22.266Z,0.76
2022-12-09T07:45:22.657Z,0.78
2022-12-09T07:46:24.639Z,0.73
2022-12-09T07:47:24.793Z,0.77
2022-12-09T07:48:25.403Z,0.81
2022-12-09T07:49:24.877Z,0.76
2022-12-09T07:50:25.358Z,0.78
2022-12-09T07:51:27.000Z,0.84
2022-12-09T07:52:27.058Z,0.74
2022-12-09T07:53:27.149Z,0.88
2022-12-09T07:54:27.706Z,0.85
2022-12-09T07:55:28.802Z,0.78
2022-12-09T07:56:30.196Z,0.82
2022-12-09T07:57:30.496Z,0.77
2022-12-09T07:58:31.361Z,0.71
2022-12-09T07:59:32.411Z,0.68
2022-12-09T08:00:32.236Z,0.74
2022-12-09T08:01:32.344Z,0.71
2022-12-09T08:02:33.030Z,0.77
2022-12-09T08:03:33.334Z,0.85
2022-12-09T08:04:34.398Z,0.89
2022-12-09T08:05:34.746Z,0.81
2022-12-09T08:06:36.094Z,0.84
2022-12-09T08:07:44.633Z,0.89
2022-12-09T08:08:37.530Z,0.86
2022-12-09T08:09:37.752Z,0.88
2022-12-09T08:10:39.131Z,0.84
2022-12-09T08:11:40.175Z,0.86
2022-12-09T08:12:38.807Z,0.86
2022-12-09T08:13:39.098Z,0.88
2022-12-09T08:14:39.790Z,0.86
2022-12-09T08:15:40.718Z,0.99
2022-12-09T08:16:43.065Z,0.92
2022-12-09T08:17:42.170Z,1.03
2022-12-09T08:18:43.934Z,0.99
2022-12-09T08:19:43.645Z,0.92
2022-12-09T08:20:45.427Z,1.02
2022-12-09T08:21:52.943Z,1
2022-12-09T08:22:45.496Z,0.94
2022-12-09T08:23:46.431Z,0.99
2022-12-09T08:24:46.102Z,1.13
2022-12-09T08:25:47.499Z,1.04
2022-12-09T08:26:48.692Z,1.09
2022-12-09T08:27:49.229Z,1.07
2022-12-09T08:28:49.543Z,1.16
2022-12-09T08:29:50.205Z,1.1
2022-12-09T08:30:51.207Z,1.12
2022-12-09T08:31:52.263Z,1.18
2022-12-09T08:32:51.640Z,1.22
2022-12-09T08:33:51.448Z,1.16
2022-12-09T08:34:52.551Z,1.28
2022-12-09T08:35:52.456Z,1.22
2022-12-09T08:37:02.104Z,1.28
2022-12-09T08:37:53.383Z,1.27
2022-12-09T08:38:54.453Z,1.31
2022-12-09T08:39:54.597Z,1.4
2022-12-09T08:40:56.002Z,1.38
2022-12-09T08:41:56.417Z,1.4
2022-12-09T08:42:57.391Z,1.4
2022-12-09T08:43:57.692Z,1.4
2022-12-09T08:45:04.716Z,1.42
2022-12-09T08:45:59.435Z,1.43
2022-12-09T08:46:59.491Z,1.39
2022-12-09T08:48:00.385Z,1.38
2022-12-09T08:49:00.998Z,1.38
2022-12-09T08:50:01.934Z,1.38
2022-12-09T08:51:01.339Z,1.42
2022-12-09T08:52:01.164Z,1.34
2022-12-09T08:53:02.529Z,1.39
2022-12-09T08:54:04.203Z,1.39
2022-12-09T08:55:03.687Z,1.34
2022-12-09T08:56:04.489Z,1.3
2022-12-09T08:57:05.174Z,1.38
2022-12-09T08:58:05.777Z,1.31
2022-12-09T08:59:06.786Z,1.32
2022-12-09T09:00:08.264Z,1.27
2022-12-09T09:01:08.993Z,1.31
2022-12-09T09:02:09.205Z,1.27
2022-12-09T09:03:09.506Z,1.22
2022-12-09T09:04:11.493Z,1.22
2022-12-09T09:05:10.961Z,1.28
2022-12-09T09:06:16.307Z,1.3
2022-12-09T09:07:11.491Z,1.31
2022-12-09T09:08:11.891Z,1.27
2022-12-09T09:09:13.343Z,1.31
2022-12-09T09:10:16.008Z,1.3
2022-12-09T09:11:14.376Z,1.34
2022-12-09T09:12:14.760Z,1.36
2022-12-09T09:13:14.976Z,1.39
2022-12-09T09:14:15.761Z,1.4
2022-12-09T09:15:17.345Z,1.4
2022-12-09T09:16:17.546Z,1.43
2022-12-09T09:17:17.767Z,1.38
2022-12-09T09:18:18.253Z,1.42
2022-12-09T09:19:19.487Z,1.25
2022-12-09T09:20:19.173Z,1.3
2022-12-09T09:21:20.342Z,1.28
2022-12-09T09:22:20.340Z,1.31
2022-12-09T09:23:20.893Z,1.27
2022-12-09T09:24:22.220Z,1.32
2022-12-09T09:25:22.442Z,1.46
2022-12-09T09:26:22.926Z,1.42
2022-12-09T09:27:23.634Z,1.38
2022-12-09T09:28:31.943Z,1.28
2022-12-09T09:29:24.133Z,1.27
2022-12-09T09:30:24.647Z,1.27
2022-12-09T09:31:25.965Z,1.28
2022-12-09T09:32:27.267Z,1.27
2022-12-09T09:33:27.401Z,1.32
2022-12-09T09:34:28.891Z,1.34
2022-12-09T09:35:29.156Z,1.4
2022-12-09T09:36:30.205Z,1.45
2022-12-09T09:37:30.415Z,1.42
2022-12-09T09:38:30.745Z,1.4
2022-12-09T09:39:32.160Z,1.42
2022-12-09T09:40:32.494Z,1.4
2022-12-09T09:41:33.959Z,1.34
2022-12-09T09:42:33.219Z,1.32
2022-12-09T09:43:34.212Z,1.24
2022-12-09T09:44:34.656Z,1.24
2022-12-09T09:45:36.033Z,1.22
2022-12-09T09:46:37.053Z,1.21
2022-12-09T09:47:44.109Z,1.25
2022-12-09T09:48:37.545Z,1.24
2022-12-09T09:49:38.314Z,1.24
2022-12-09T09:50:38.663Z,1.2
2022-12-09T09:51:39.302Z,1.21
2022-12-09T09:52:40.128Z,1.3
2022-12-09T09:53:40.515Z,1.3
2022-12-09T09:54:40.866Z,1.3
2022-12-09T09:55:41.504Z,1.3
2022-12-09T09:56:42.502Z,1.32
2022-12-09T09:57:43.128Z,1.3
2022-12-09T09:58:43.507Z,1.32
2022-12-09T09:59:44.532Z,1.28
2022-12-09T10:00:44.487Z,1.27
2022-12-09T10:01:45.722Z,1.3
2022-12-09T10:02:46.599Z,1.36
2022-12-09T10:03:46.659Z,1.27
2022-12-09T10:04:47.028Z,1.3
2022-12-09T10:05:46.894Z,1.43
2022-12-09T10:06:47.782Z,1.38
2022-12-09T10:07:48.401Z,1.36
2022-12-09T10:08:47.768Z,1.34
2022-12-09T10:09:48.069Z,1.32
2022-12-09T10:10:49.345Z,1.34
2022-12-09T10:11:49.318Z,1.34
2022-12-09T10:12:49.548Z,1.38
2022-12-09T10:13:50.481Z,1.3
2022-12-09T10:14:50.516Z,1.22
2022-12-09T10:15:50.387Z,1.3
2022-12-09T10:16:51.469Z,1.34
2022-12-09T10:17:53.203Z,1.38
2022-12-09T10:18:52.665Z,1.32
2022-12-09T10:19:53.542Z,1.27
2022-12-09T10:20:55.553Z,1.3
2022-12-09T10:21:55.575Z,1.32
2022-12-09T10:22:55.783Z,1.2
2022-12-09T10:23:56.424Z,1.24
2022-12-09T10:24:57.133Z,1.3
2022-12-09T10:25:58.494Z,1.27
2022-12-09T10:26:59.347Z,1.28
2022-12-09T10:27:59.698Z,1.34
2022-12-09T10:29:00.652Z,1.4
2022-12-09T10:30:00.874Z,1.39
2022-12-09T10:31:02.482Z,1.34
2022-12-09T10:32:01.776Z,1.36
2022-12-09T10:33:02.990Z,1.36
2022-12-09T10:34:03.090Z,1.36
2022-12-09T10:35:04.414Z,1.38
2022-12-09T10:36:04.215Z,1.45
2022-12-09T10:37:04.512Z,1.48
2022-12-09T10:38:05.569Z,1.52
2022-12-09T10:39:06.065Z,1.53
2022-12-09T10:40:07.747Z,1.57
2022-12-09T10:41:06.520Z,1.53
2022-12-09T10:42:06.232Z,1.53
2022-12-09T10:43:06.439Z,1.58
2022-12-09T10:44:07.852Z,1.63
2022-12-09T10:45:08.564Z,1.61
2022-12-09T10:46:26.548Z,1.74
2022-12-09T10:47:11.022Z,1.76
2022-12-09T10:48:11.457Z,1.75
2022-12-09T10:49:12.037Z,1.78
2022-12-09T10:50:13.730Z,1.79
2022-12-09T10:51:13.133Z,1.81
2022-12-09T10:52:13.264Z,1.86
2022-12-09T10:53:14.305Z,1.78
2022-12-09T10:54:22.180Z,1.75
2022-12-09T10:55:15.925Z,1.82
2022-12-09T10:56:16.133Z,1.84
2022-12-09T10:57:16.410Z,1.84
2022-12-09T10:58:16.383Z,1.97
2022-12-09T10:59:17.979Z,1.95
2022-12-09T11:00:18.196Z,1.97
2022-12-09T11:01:19.360Z,1.92
2022-12-09T11:02:21.118Z,1.95
2022-12-09T11:03:21.071Z,1.95
2022-12-09T11:04:22.781Z,1.97
2022-12-09T11:05:23.183Z,1.95
2022-12-09T11:06:24.552Z,1.97
2022-12-09T11:07:23.883Z,1.98
2022-12-09T11:08:24.104Z,1.95
2022-12-09T11:09:25.169Z,1.93
2022-12-09T11:10:26.783Z,1.93
2022-12-09T11:11:26.263Z,1.95
2022-12-09T11:12:25.761Z,1.95
2022-12-09T11:13:26.833Z,1.89
2022-12-09T11:14:26.401Z,2.01
2022-12-09T11:15:27.961Z,2.03
2022-12-09T11:16:28.818Z,2.03
2022-12-09T11:17:28.377Z,2.05
2022-12-09T11:18:29.312Z,1.98
2022-12-09T11:19:29.486Z,2.07
2022-12-09T11:20:31.651Z,1.97
2022-12-09T11:21:31.707Z,1.95
2022-12-09T11:22:32.665Z,2.03
2022-12-09T11:23:33.637Z,1.98
2022-12-09T11:24:33.206Z,2.14
2022-12-09T11:25:34.510Z,2.18
2022-12-09T11:26:35.043Z,2.19
2022-12-09T11:27:36.153Z,2.22
2022-12-09T11:28:35.947Z,2.25
2022-12-09T11:29:36.417Z,2.23
2022-12-09T11:30:58.679Z,2.33
2022-12-09T11:31:43.651Z,2.28
2022-12-09T11:32:44.036Z,2.39
2022-12-09T11:33:44.138Z,2.36
2022-12-09T11:34:45.407Z,2.4
2022-12-09T11:35:46.893Z,2.39
2022-12-09T11:36:49.792Z,2.34
2022-12-09T11:37:45.821Z,2.41
2022-12-09T11:38:46.077Z,2.36
2022-12-09T11:39:47.265Z,2.4
2022-12-09T11:40:47.674Z,2.34
2022-12-09T11:41:47.862Z,2.44
2022-12-09T11:42:48.396Z,2.46
2022-12-09T11:43:48.654Z,2.51
2022-12-09T11:44:49.581Z,2.62
2022-12-09T11:45:50.799Z,2.61
2022-12-09T11:46:50.970Z,2.72
2022-12-09T11:48:36.141Z,2.7
2022-12-09T11:48:56.222Z,2.72
2022-12-09T11:49:56.906Z,2.76
2022-12-09T11:50:57.451Z,2.7
2022-12-09T11:51:57.382Z,2.61
2022-12-09T11:52:58.454Z,2.61
2022-12-09T11:54:03.863Z,2.57
2022-12-09T11:54:59.837Z,2.54
2022-12-09T11:56:00.336Z,2.58
2022-12-09T11:57:00.572Z,2.55
2022-12-09T11:58:00.500Z,2.68
2022-12-09T11:59:01.987Z,2.68
2022-12-09T12:00:01.907Z,2.55
2022-12-09T12:01:02.045Z,2.69
2022-12-09T12:02:03.111Z,2.73
2022-12-09T12:03:04.142Z,2.69
2022-12-09T12:04:04.007Z,2.73
2022-12-09T12:05:04.229Z,2.72
2022-12-09T12:06:04.924Z,2.82
2022-12-09T12:07:05.568Z,2.82
2022-12-09T12:08:06.488Z,2.91
2022-12-09T12:09:06.538Z,2.98
2022-12-09T12:10:07.783Z,2.91
2022-12-09T12:11:15.641Z,2.94
2022-12-09T12:12:07.768Z,2.87
2022-12-09T12:13:07.851Z,2.93
2022-12-09T12:14:09.047Z,3.08
2022-12-09T12:15:08.960Z,3.12
2022-12-09T12:16:09.718Z,3.22
2022-12-09T12:17:10.285Z,3.36
2022-12-09T12:18:10.806Z,3.26
2022-12-09T12:19:11.434Z,3.31
2022-12-09T12:20:13.062Z,3.34
2022-12-09T12:21:13.590Z,3.33
2022-12-09T12:22:13.935Z,3.27
2022-12-09T12:23:14.766Z,3.21
2022-12-09T12:24:16.060Z,3.21
2022-12-09T12:25:22.723Z,3.18
2022-12-09T12:26:17.215Z,3.26
2022-12-09T12:27:17.424Z,3.26
2022-12-09T12:28:17.678Z,3.31
2022-12-09T12:29:18.166Z,3.33
2022-12-09T12:30:19.097Z,3.3
2022-12-09T12:31:19.108Z,3.36
2022-12-09T12:32:19.744Z,3.27
2022-12-09T12:34:39.337Z,3.36
2022-12-09T12:35:23.114Z,3.27
2022-12-09T12:36:24.345Z,3.34
2022-12-09T12:37:24.274Z,3.31
2022-12-09T12:38:25.192Z,3.43
2022-12-09T12:39:25.714Z,3.4
2022-12-09T12:40:32.511Z,3.41
2022-12-09T12:41:27.749Z,3.48
2022-12-09T12:42:27.948Z,3.4
2022-12-09T12:43:27.891Z,3.37
2022-12-09T12:44:28.598Z,3.37
2022-12-09T12:45:29.476Z,3.43
2022-12-09T12:46:29.790Z,3.5
2022-12-09T12:47:30.097Z,3.46
2022-12-09T12:48:31.169Z,3.5
2022-12-09T12:49:31.589Z,3.4
2022-12-09T12:50:32.210Z,3.41
2022-12-09T12:51:32.544Z,3.5
2022-12-09T12:53:00.104Z,3.36
2022-12-09T12:53:33.521Z,3.27
2022-12-09T12:54:33.908Z,3.43
2022-12-09T12:55:34.393Z,3.27
2022-12-09T12:56:34.579Z,3.3
2022-12-09T12:57:34.920Z,3.36
2022-12-09T12:58:36.131Z,3.21
2022-12-09T12:59:36.761Z,3.24
2022-12-09T13:00:37.974Z,3.12
2022-12-09T13:01:38.719Z,3.03
2022-12-09T13:02:39.365Z,3.08
2022-12-09T13:03:39.362Z,3.03
2022-12-09T13:04:40.940Z,3.11
2022-12-09T13:05:40.853Z,3.06
2022-12-09T13:06:41.841Z,3.06
2022-12-09T13:07:42.233Z,3.19
2022-12-09T13:08:42.869Z,3.21
2022-12-09T13:09:43.285Z,3.09
2022-12-09T13:10:44.191Z,3.06
2022-12-09T13:11:44.413Z,3.08
2022-12-09T13:12:45.052Z,3.08
2022-12-09T13:13:46.572Z,3.05
2022-12-09T13:14:52.337Z,3.06
2022-12-09T13:15:47.565Z,3.09
2022-12-09T13:16:48.356Z,3.01
2022-12-09T13:17:48.780Z,3.08
2022-12-09T13:18:49.481Z,2.91
2022-12-09T13:19:50.832Z,2.95
2022-12-09T13:20:52.019Z,2.98
2022-12-09T13:21:51.956Z,2.93
2022-12-09T13:22:52.566Z,2.93
2022-12-09T13:23:53.218Z,2.88
2022-12-09T13:25:00.600Z,2.91
2022-12-09T13:25:55.143Z,2.9
2022-12-09T13:26:55.760Z,2.94
2022-12-09T13:27:55.817Z,2.91
2022-12-09T13:28:57.073Z,2.9
2022-12-09T13:29:56.998Z,2.93
2022-12-09T13:31:00.511Z,2.97